KEAN/EAN METAR and TAF weather

Enter ICAO airport designator
Station Type Date Time Source
KEAN METAR 2018/10/21 06:15 UTC NOAA

KEAN 210615Z AUTO 16011KT 10SM CLR 10/M01 A3019 RMK AO2 T00981007


Station Type Date Time Source
KEAN Decoded METAR 2018/10/21 06:15 UTC NOAA

Station name not available
Oct 21, 2018 - 02:15 AM EDT / 2018.10.21 0615 UTC
Wind: from the SSE (160 degrees) at 13 MPH (11 KT):0
Visibility: 10 mile(s):0
Sky conditions: clear
Temperature: 49.6 F (9.8 C)
Dew Point: 30.7 F (-0.7 C)
Relative Humidity: 47%
Pressure (altimeter): 30.19 in. Hg (1022 hPa)
ob: KEAN 210615Z AUTO 16011KT 10SM CLR 10/M01 A3019 RMK AO2 T00981007
cycle: 6

Station Type Date Time Source
KEAN TAF UTC NOAA

Error!


Example: see airport list